CRA023 MROC-MGGT
Flight info
| Callsign | CRA023 |
|---|---|
| Flight time | 1h 9m |
| Altitude | 36000 |
| Route | NANJO3U ULAPO DCT TUKOR DCT KAPAN KAPAN2C |
| Aircraft | B752/M-SDE2E3FGHIJ3J4J7RWXY/LB1 |
Departure
| Time | 2026-05-04 03:08 |
|---|---|
| Airport | Juan Santamaría International Airport (MROC) |
Arrival
| Time | 2026-05-04 04:17 |
|---|---|
| Airport | La Aurora International Airport (MGGT) |
| Time | Latitude | Longitude | Altitude | Speed | Heading |
|---|---|---|---|---|---|
| 2026-05-04 02:21 | 9.99654 | -84.20985 | 3001 ft | 0 kts | 340° |
| 2026-05-04 02:46 | 9.99642 | -84.20981 | 3001 ft | 2 kts | 351° |
| 2026-05-04 02:46 | 9.99626 | -84.20980 | 3001 ft | 2 kts | 2° |
| 2026-05-04 02:46 | 9.99611 | -84.20982 | 3000 ft | 2 kts | 15° |
| 2026-05-04 02:46 | 9.99597 | -84.20988 | 3000 ft | 2 kts | 27° |
| 2026-05-04 02:47 | 9.99585 | -84.20995 | 3000 ft | 2 kts | 39° |
| 2026-05-04 02:47 | 9.99574 | -84.21006 | 2999 ft | 2 kts | 51° |
| 2026-05-04 02:47 | 9.99565 | -84.21018 | 2999 ft | 2 kts | 63° |
| 2026-05-04 02:47 | 9.99560 | -84.21033 | 2998 ft | 2 kts | 70° |
| 2026-05-04 02:48 | 9.99557 | -84.21040 | 2997 ft | 0 kts | 68° |
| 2026-05-04 02:49 | 9.99564 | -84.21014 | 2999 ft | 9 kts | 85° |
| 2026-05-04 02:49 | 9.99518 | -84.20952 | 3002 ft | 9 kts | 153° |
| 2026-05-04 02:50 | 9.99478 | -84.20953 | 3001 ft | 7 kts | 212° |
| 2026-05-04 02:50 | 9.99441 | -84.21013 | 2998 ft | 14 kts | 246° |
| 2026-05-04 02:50 | 9.99394 | -84.21142 | 2991 ft | 22 kts | 250° |
| 2026-05-04 02:50 | 9.99338 | -84.21292 | 2983 ft | 22 kts | 248° |
| 2026-05-04 02:51 | 9.99281 | -84.21437 | 2974 ft | 21 kts | 251° |
| 2026-05-04 02:51 | 9.99232 | -84.21578 | 2965 ft | 20 kts | 251° |
| 2026-05-04 02:51 | 9.99203 | -84.21653 | 2960 ft | 1 kts | 246° |
| 2026-05-04 02:51 | 9.99193 | -84.21673 | 2959 ft | 4 kts | 244° |
| 2026-05-04 02:52 | 9.99177 | -84.21705 | 2958 ft | 5 kts | 241° |
| 2026-05-04 02:52 | 9.99159 | -84.21736 | 2957 ft | 5 kts | 238° |
| 2026-05-04 02:52 | 9.99143 | -84.21764 | 2956 ft | 1 kts | 251° |
| 2026-05-04 02:52 | 9.99141 | -84.21802 | 2954 ft | 7 kts | 264° |
| 2026-05-04 02:53 | 9.99139 | -84.21810 | 2953 ft | 0 kts | 252° |
| 2026-05-04 03:06 | 9.99136 | -84.21819 | 2953 ft | 7 kts | 252° |
| 2026-05-04 03:06 | 9.99087 | -84.21957 | 2945 ft | 25 kts | 251° |
| 2026-05-04 03:06 | 9.99048 | -84.22133 | 2937 ft | 25 kts | 244° |
| 2026-05-04 03:06 | 9.98934 | -84.22168 | 2938 ft | 15 kts | 126° |
| 2026-05-04 03:07 | 9.99017 | -84.21925 | 2950 ft | 70 kts | 75° |
| 2026-05-04 03:07 | 9.99259 | -84.21235 | 2984 ft | 136 kts | 72° |
| 2026-05-04 03:07 | 9.99608 | -84.20177 | 3195 ft | 171 kts | 72° |
| 2026-05-04 03:07 | 9.99970 | -84.18891 | 3483 ft | 207 kts | 65° |
| 2026-05-04 03:08 | 10.00939 | -84.17674 | 3918 ft | 238 kts | 31° |
| 2026-05-04 03:08 | 10.02584 | -84.17126 | 4476 ft | 265 kts | 2° |
| 2026-05-04 03:08 | 10.04334 | -84.17565 | 5590 ft | 256 kts | 330° |
| 2026-05-04 03:08 | 10.05559 | -84.18783 | 6491 ft | 255 kts | 301° |
| 2026-05-04 03:09 | 10.06119 | -84.20525 | 7082 ft | 266 kts | 284° |
| 2026-05-04 03:09 | 10.06490 | -84.22438 | 7463 ft | 285 kts | 282° |
| 2026-05-04 03:09 | 10.06924 | -84.24431 | 7884 ft | 298 kts | 287° |
| 2026-05-04 03:09 | 10.07509 | -84.26470 | 8589 ft | 302 kts | 290° |
| 2026-05-04 03:10 | 10.08162 | -84.28497 | 9306 ft | 303 kts | 291° |
| 2026-05-04 03:10 | 10.08856 | -84.30523 | 9949 ft | 309 kts | 292° |
| 2026-05-04 03:10 | 10.09592 | -84.32593 | 10494 ft | 318 kts | 291° |
| 2026-05-04 03:10 | 10.10506 | -84.34686 | 10693 ft | 336 kts | 305° |
| 2026-05-04 03:11 | 10.12058 | -84.36545 | 10902 ft | 350 kts | 322° |
| 2026-05-04 03:11 | 10.14007 | -84.38089 | 11061 ft | 367 kts | 324° |
| 2026-05-04 03:11 | 10.16079 | -84.39731 | 11367 ft | 380 kts | 324° |
| 2026-05-04 03:11 | 10.18156 | -84.41380 | 11932 ft | 383 kts | 324° |
| 2026-05-04 03:12 | 10.20281 | -84.43070 | 12442 ft | 387 kts | 323° |
| 2026-05-04 03:12 | 10.22428 | -84.44775 | 12928 ft | 392 kts | 323° |
| 2026-05-04 03:12 | 10.24611 | -84.46513 | 13016 ft | 400 kts | 323° |
| 2026-05-04 03:12 | 10.26768 | -84.48231 | 12978 ft | 393 kts | 323° |
| 2026-05-04 03:13 | 10.28905 | -84.49934 | 12961 ft | 388 kts | 323° |
| 2026-05-04 03:13 | 10.31043 | -84.51636 | 12987 ft | 392 kts | 323° |
| 2026-05-04 03:13 | 10.33203 | -84.53357 | 12980 ft | 393 kts | 323° |
| 2026-05-04 03:13 | 10.35370 | -84.55081 | 13149 ft | 398 kts | 323° |
| 2026-05-04 03:14 | 10.37552 | -84.56820 | 13830 ft | 396 kts | 323° |
| 2026-05-04 03:14 | 10.39738 | -84.58560 | 14302 ft | 400 kts | 323° |
| 2026-05-04 03:14 | 10.41927 | -84.60304 | 14878 ft | 400 kts | 323° |
| 2026-05-04 03:14 | 10.44120 | -84.62052 | 15362 ft | 403 kts | 323° |
| 2026-05-04 03:15 | 10.46318 | -84.63803 | 15859 ft | 405 kts | 323° |
| 2026-05-04 03:15 | 10.48562 | -84.65591 | 16357 ft | 407 kts | 323° |
| 2026-05-04 03:15 | 10.50786 | -84.67364 | 16812 ft | 409 kts | 323° |
| 2026-05-04 03:15 | 10.53032 | -84.69155 | 17253 ft | 412 kts | 322° |
| 2026-05-04 03:16 | 10.55290 | -84.70956 | 17746 ft | 413 kts | 323° |
| 2026-05-04 03:16 | 10.57564 | -84.72770 | 18121 ft | 417 kts | 323° |
| 2026-05-04 03:16 | 10.59859 | -84.74601 | 18539 ft | 419 kts | 322° |
| 2026-05-04 03:16 | 10.62162 | -84.76437 | 18942 ft | 422 kts | 322° |
| 2026-05-04 03:17 | 10.64453 | -84.78266 | 19319 ft | 425 kts | 322° |
| 2026-05-04 03:17 | 10.66804 | -84.80145 | 19694 ft | 428 kts | 322° |
| 2026-05-04 03:17 | 10.69025 | -84.82170 | 20066 ft | 431 kts | 316° |
| 2026-05-04 03:17 | 10.71200 | -84.84293 | 20441 ft | 433 kts | 317° |
| 2026-05-04 03:18 | 10.73379 | -84.86417 | 20803 ft | 436 kts | 317° |
| 2026-05-04 03:18 | 10.75562 | -84.88550 | 21160 ft | 438 kts | 316° |
| 2026-05-04 03:18 | 10.77765 | -84.90707 | 21513 ft | 441 kts | 316° |
| 2026-05-04 03:18 | 10.79968 | -84.92865 | 21903 ft | 442 kts | 316° |
| 2026-05-04 03:19 | 10.82196 | -84.95049 | 22241 ft | 444 kts | 316° |
| 2026-05-04 03:19 | 10.84433 | -84.97243 | 22585 ft | 446 kts | 316° |
| 2026-05-04 03:19 | 10.86674 | -84.99441 | 22940 ft | 448 kts | 316° |
| 2026-05-04 03:19 | 10.88919 | -85.01643 | 23251 ft | 451 kts | 316° |
| 2026-05-04 03:20 | 10.91196 | -85.03878 | 23581 ft | 453 kts | 316° |
| 2026-05-04 03:20 | 10.93460 | -85.06100 | 23884 ft | 455 kts | 316° |
| 2026-05-04 03:20 | 10.95731 | -85.08330 | 24199 ft | 457 kts | 316° |
| 2026-05-04 03:20 | 10.98047 | -85.10605 | 24480 ft | 460 kts | 316° |
| 2026-05-04 03:21 | 11.00353 | -85.12870 | 24769 ft | 463 kts | 316° |
| 2026-05-04 03:21 | 11.02667 | -85.15143 | 25091 ft | 465 kts | 316° |
| 2026-05-04 03:21 | 11.04909 | -85.17526 | 25369 ft | 467 kts | 309° |
| 2026-05-04 03:21 | 11.06865 | -85.20211 | 25674 ft | 469 kts | 306° |
| 2026-05-04 03:22 | 11.08769 | -85.22900 | 25968 ft | 471 kts | 306° |
| 2026-05-04 03:22 | 11.10690 | -85.25626 | 26261 ft | 473 kts | 306° |
| 2026-05-04 03:22 | 11.12602 | -85.28345 | 26519 ft | 476 kts | 306° |
| 2026-05-04 03:22 | 11.14532 | -85.31094 | 26832 ft | 477 kts | 305° |
| 2026-05-04 03:23 | 11.16482 | -85.33878 | 27084 ft | 480 kts | 305° |
| 2026-05-04 03:23 | 11.18403 | -85.36620 | 27393 ft | 480 kts | 305° |
| 2026-05-04 03:23 | 11.20357 | -85.39416 | 27637 ft | 483 kts | 306° |
| 2026-05-04 03:23 | 11.22287 | -85.42176 | 28140 ft | 479 kts | 306° |
| 2026-05-04 03:24 | 11.24236 | -85.44962 | 28215 ft | 485 kts | 306° |
| 2026-05-04 03:24 | 11.26219 | -85.47799 | 28551 ft | 485 kts | 306° |
| 2026-05-04 03:24 | 11.28158 | -85.50573 | 28908 ft | 485 kts | 306° |
| 2026-05-04 03:24 | 11.30115 | -85.53375 | 29155 ft | 487 kts | 306° |
| 2026-05-04 03:25 | 11.32069 | -85.56172 | 29512 ft | 486 kts | 305° |
| 2026-05-04 03:25 | 11.34053 | -85.59016 | 29823 ft | 486 kts | 305° |
| 2026-05-04 03:25 | 11.35990 | -85.61790 | 30123 ft | 486 kts | 305° |
| 2026-05-04 03:25 | 11.37954 | -85.64606 | 30382 ft | 486 kts | 305° |
| 2026-05-04 03:26 | 11.39920 | -85.67426 | 30770 ft | 484 kts | 305° |
| 2026-05-04 03:26 | 11.41867 | -85.70219 | 31143 ft | 482 kts | 305° |
| 2026-05-04 03:26 | 11.43819 | -85.73019 | 31396 ft | 483 kts | 304° |
| 2026-05-04 03:26 | 11.45756 | -85.75800 | 31720 ft | 481 kts | 304° |
| 2026-05-04 03:27 | 11.47700 | -85.78590 | 31998 ft | 481 kts | 304° |
| 2026-05-04 03:27 | 11.49646 | -85.81386 | 32305 ft | 480 kts | 304° |
| 2026-05-04 03:27 | 11.51594 | -85.84184 | 32554 ft | 480 kts | 304° |
| 2026-05-04 03:27 | 11.53545 | -85.86987 | 32872 ft | 479 kts | 304° |
| 2026-05-04 03:28 | 11.55459 | -85.89738 | 33179 ft | 479 kts | 304° |
| 2026-05-04 03:28 | 11.57407 | -85.92539 | 33400 ft | 480 kts | 304° |
| 2026-05-04 03:28 | 11.59341 | -85.95319 | 33735 ft | 478 kts | 304° |
| 2026-05-04 03:28 | 11.61264 | -85.98086 | 34017 ft | 477 kts | 304° |
| 2026-05-04 03:29 | 11.63178 | -86.00839 | 34268 ft | 477 kts | 304° |
| 2026-05-04 03:29 | 11.65120 | -86.03635 | 34494 ft | 478 kts | 304° |
| 2026-05-04 03:29 | 11.67041 | -86.06400 | 34784 ft | 476 kts | 304° |
| 2026-05-04 03:29 | 11.68949 | -86.09147 | 35006 ft | 476 kts | 304° |
| 2026-05-04 03:30 | 11.70866 | -86.11907 | 35253 ft | 475 kts | 304° |
| 2026-05-04 03:30 | 11.72771 | -86.14651 | 35502 ft | 474 kts | 304° |
| 2026-05-04 03:30 | 11.74684 | -86.17409 | 35663 ft | 475 kts | 304° |
| 2026-05-04 03:30 | 11.76597 | -86.20166 | 35835 ft | 471 kts | 304° |
| 2026-05-04 03:31 | 11.78486 | -86.22890 | 35845 ft | 470 kts | 304° |
| 2026-05-04 03:31 | 11.82276 | -86.28357 | 35865 ft | 473 kts | 304° |
| 2026-05-04 03:32 | 11.86074 | -86.33838 | 35861 ft | 473 kts | 304° |
| 2026-05-04 03:32 | 11.89894 | -86.39356 | 35853 ft | 471 kts | 304° |
| 2026-05-04 03:33 | 11.93672 | -86.44814 | 35849 ft | 472 kts | 304° |
| 2026-05-04 03:33 | 11.97466 | -86.50299 | 35828 ft | 473 kts | 304° |
| 2026-05-04 03:34 | 12.01241 | -86.55759 | 35823 ft | 473 kts | 304° |
| 2026-05-04 03:34 | 12.05029 | -86.61241 | 35824 ft | 472 kts | 304° |
| 2026-05-04 03:35 | 12.08827 | -86.66740 | 35824 ft | 471 kts | 304° |
| 2026-05-04 03:35 | 12.12578 | -86.72176 | 35808 ft | 471 kts | 303° |
| 2026-05-04 03:36 | 12.16351 | -86.77646 | 35805 ft | 471 kts | 304° |
| 2026-05-04 03:36 | 12.20139 | -86.83141 | 35800 ft | 471 kts | 303° |
| 2026-05-04 03:37 | 12.23919 | -86.88628 | 35806 ft | 471 kts | 303° |
| 2026-05-04 03:37 | 12.27688 | -86.94101 | 35805 ft | 471 kts | 303° |
| 2026-05-04 03:38 | 12.31442 | -86.99556 | 35804 ft | 471 kts | 303° |
| 2026-05-04 03:38 | 12.35216 | -87.05042 | 35801 ft | 471 kts | 303° |
| 2026-05-04 03:39 | 12.38985 | -87.10525 | 35805 ft | 471 kts | 304° |
| 2026-05-04 03:39 | 12.42748 | -87.16003 | 35805 ft | 471 kts | 304° |
| 2026-05-04 03:40 | 12.46500 | -87.21467 | 35806 ft | 472 kts | 304° |
| 2026-05-04 03:40 | 12.50282 | -87.26978 | 35803 ft | 471 kts | 304° |
| 2026-05-04 03:41 | 12.54047 | -87.32468 | 35806 ft | 470 kts | 304° |
| 2026-05-04 03:41 | 12.57786 | -87.37923 | 35810 ft | 468 kts | 304° |
| 2026-05-04 03:42 | 12.61527 | -87.43385 | 35815 ft | 470 kts | 304° |
| 2026-05-04 03:42 | 12.65280 | -87.48868 | 35814 ft | 470 kts | 304° |
| 2026-05-04 03:43 | 12.69023 | -87.54338 | 35814 ft | 469 kts | 304° |
| 2026-05-04 03:43 | 12.72761 | -87.59805 | 35816 ft | 469 kts | 304° |
| 2026-05-04 03:44 | 12.76501 | -87.65278 | 35820 ft | 468 kts | 304° |
| 2026-05-04 03:44 | 12.80226 | -87.70731 | 35817 ft | 466 kts | 304° |
| 2026-05-04 03:45 | 12.83961 | -87.76203 | 35820 ft | 467 kts | 304° |
| 2026-05-04 03:45 | 12.87671 | -87.81651 | 35816 ft | 467 kts | 303° |
| 2026-05-04 03:46 | 12.91001 | -87.87328 | 35819 ft | 467 kts | 300° |
| 2026-05-04 03:46 | 12.94322 | -87.93076 | 35815 ft | 467 kts | 300° |
| 2026-05-04 03:47 | 12.97635 | -87.98804 | 35801 ft | 466 kts | 300° |
| 2026-05-04 03:47 | 13.00932 | -88.04501 | 35802 ft | 466 kts | 300° |
| 2026-05-04 03:48 | 13.04222 | -88.10188 | 35815 ft | 466 kts | 300° |
| 2026-05-04 03:48 | 13.07528 | -88.15906 | 35817 ft | 465 kts | 300° |
| 2026-05-04 03:49 | 13.10842 | -88.21641 | 35846 ft | 465 kts | 300° |
| 2026-05-04 03:49 | 13.14134 | -88.27342 | 35860 ft | 466 kts | 300° |
| 2026-05-04 03:50 | 13.17420 | -88.33035 | 35863 ft | 466 kts | 300° |
| 2026-05-04 03:50 | 13.20734 | -88.38783 | 35845 ft | 467 kts | 300° |
| 2026-05-04 03:51 | 13.24038 | -88.44515 | 35852 ft | 465 kts | 300° |
| 2026-05-04 03:51 | 13.27323 | -88.50217 | 35839 ft | 465 kts | 300° |
| 2026-05-04 03:52 | 13.30620 | -88.55946 | 35844 ft | 466 kts | 300° |
| 2026-05-04 03:52 | 13.33890 | -88.61631 | 35865 ft | 465 kts | 300° |
| 2026-05-04 03:53 | 13.37183 | -88.67360 | 35862 ft | 466 kts | 300° |
| 2026-05-04 03:53 | 13.40479 | -88.73097 | 35851 ft | 466 kts | 300° |
| 2026-05-04 03:54 | 13.43778 | -88.78845 | 35830 ft | 465 kts | 300° |
| 2026-05-04 03:54 | 13.47046 | -88.84541 | 35824 ft | 466 kts | 300° |
| 2026-05-04 03:54 | 13.48703 | -88.87431 | 35299 ft | 469 kts | 300° |
| 2026-05-04 03:55 | 13.50345 | -88.90296 | 35050 ft | 455 kts | 300° |
| 2026-05-04 03:55 | 13.51924 | -88.93050 | 34384 ft | 447 kts | 300° |
| 2026-05-04 03:55 | 13.53486 | -88.95779 | 33771 ft | 442 kts | 300° |
| 2026-05-04 03:55 | 13.55040 | -88.98495 | 33184 ft | 445 kts | 300° |
| 2026-05-04 03:56 | 13.56634 | -89.01278 | 32599 ft | 453 kts | 300° |
| 2026-05-04 03:56 | 13.58233 | -89.04073 | 32087 ft | 460 kts | 300° |
| 2026-05-04 03:56 | 13.59860 | -89.06918 | 31566 ft | 462 kts | 300° |
| 2026-05-04 03:56 | 13.61476 | -89.09744 | 31042 ft | 461 kts | 300° |
| 2026-05-04 03:57 | 13.63101 | -89.12586 | 30520 ft | 459 kts | 301° |
| 2026-05-04 03:57 | 13.64712 | -89.15407 | 30006 ft | 459 kts | 301° |
| 2026-05-04 03:57 | 13.66340 | -89.18256 | 29488 ft | 461 kts | 301° |
| 2026-05-04 03:57 | 13.67944 | -89.21062 | 28982 ft | 462 kts | 301° |
| 2026-05-04 03:58 | 13.71173 | -89.26721 | 27984 ft | 453 kts | 301° |
| 2026-05-04 03:58 | 13.72749 | -89.29482 | 27497 ft | 447 kts | 301° |
| 2026-05-04 03:58 | 13.74316 | -89.32230 | 27013 ft | 445 kts | 301° |
| 2026-05-04 03:59 | 13.75883 | -89.34979 | 26527 ft | 443 kts | 301° |
| 2026-05-04 03:59 | 13.77432 | -89.37698 | 26041 ft | 442 kts | 302° |
| 2026-05-04 03:59 | 13.78983 | -89.40418 | 25542 ft | 439 kts | 302° |
| 2026-05-04 03:59 | 13.80515 | -89.43110 | 25044 ft | 436 kts | 302° |
| 2026-05-04 04:00 | 13.82042 | -89.45791 | 24546 ft | 433 kts | 302° |
| 2026-05-04 04:00 | 13.83554 | -89.48447 | 24049 ft | 430 kts | 302° |
| 2026-05-04 04:00 | 13.85067 | -89.51106 | 23551 ft | 428 kts | 302° |
| 2026-05-04 04:00 | 13.86555 | -89.53722 | 23068 ft | 425 kts | 302° |
| 2026-05-04 04:01 | 13.88036 | -89.56328 | 22584 ft | 422 kts | 302° |
| 2026-05-04 04:01 | 13.89520 | -89.58939 | 22101 ft | 419 kts | 302° |
| 2026-05-04 04:01 | 13.90973 | -89.61496 | 21631 ft | 417 kts | 302° |
| 2026-05-04 04:01 | 13.92436 | -89.64070 | 21154 ft | 415 kts | 302° |
| 2026-05-04 04:02 | 13.93886 | -89.66624 | 20673 ft | 413 kts | 302° |
| 2026-05-04 04:02 | 13.95332 | -89.69170 | 20182 ft | 409 kts | 302° |
| 2026-05-04 04:02 | 13.96772 | -89.71707 | 19695 ft | 406 kts | 302° |
| 2026-05-04 04:02 | 13.98174 | -89.74178 | 19256 ft | 404 kts | 302° |
| 2026-05-04 04:03 | 13.99594 | -89.76682 | 18801 ft | 403 kts | 302° |
| 2026-05-04 04:03 | 14.01009 | -89.79176 | 18337 ft | 402 kts | 302° |
| 2026-05-04 04:03 | 14.02403 | -89.81635 | 17873 ft | 401 kts | 303° |
| 2026-05-04 04:03 | 14.03815 | -89.84129 | 17381 ft | 399 kts | 303° |
| 2026-05-04 04:04 | 14.05200 | -89.86567 | 16929 ft | 394 kts | 303° |
| 2026-05-04 04:04 | 14.06646 | -89.88944 | 16486 ft | 390 kts | 305° |
| 2026-05-04 04:04 | 14.08094 | -89.91293 | 16056 ft | 389 kts | 305° |
| 2026-05-04 04:04 | 14.09550 | -89.93661 | 15613 ft | 387 kts | 305° |
| 2026-05-04 04:05 | 14.10986 | -89.95998 | 15175 ft | 384 kts | 305° |
| 2026-05-04 04:05 | 14.12393 | -89.98289 | 14746 ft | 382 kts | 304° |
| 2026-05-04 04:05 | 14.13810 | -90.00598 | 14307 ft | 379 kts | 305° |
| 2026-05-04 04:05 | 14.15221 | -90.02898 | 13867 ft | 377 kts | 305° |
| 2026-05-04 04:06 | 14.16607 | -90.05158 | 13427 ft | 374 kts | 305° |
| 2026-05-04 04:06 | 14.17993 | -90.07418 | 12989 ft | 371 kts | 304° |
| 2026-05-04 04:06 | 14.19365 | -90.09657 | 12548 ft | 369 kts | 305° |
| 2026-05-04 04:06 | 14.20741 | -90.11900 | 12113 ft | 366 kts | 305° |
| 2026-05-04 04:07 | 14.22132 | -90.14071 | 11631 ft | 365 kts | 307° |
| 2026-05-04 04:07 | 14.23424 | -90.16313 | 11225 ft | 359 kts | 295° |
| 2026-05-04 04:07 | 14.24117 | -90.18710 | 11190 ft | 344 kts | 285° |
| 2026-05-04 04:07 | 14.24629 | -90.21079 | 11067 ft | 331 kts | 285° |
| 2026-05-04 04:08 | 14.25122 | -90.23370 | 10712 ft | 326 kts | 285° |
| 2026-05-04 04:08 | 14.25596 | -90.25612 | 10403 ft | 314 kts | 285° |
| 2026-05-04 04:08 | 14.26033 | -90.27724 | 10073 ft | 288 kts | 285° |
| 2026-05-04 04:08 | 14.26441 | -90.29712 | 9778 ft | 286 kts | 285° |
| 2026-05-04 04:09 | 14.26853 | -90.31718 | 9535 ft | 280 kts | 286° |
| 2026-05-04 04:09 | 14.27437 | -90.33542 | 9278 ft | 254 kts | 296° |
| 2026-05-04 04:09 | 14.28085 | -90.35173 | 8966 ft | 246 kts | 296° |
| 2026-05-04 04:09 | 14.28767 | -90.36811 | 8667 ft | 246 kts | 303° |
| 2026-05-04 04:10 | 14.29795 | -90.38175 | 8394 ft | 242 kts | 317° |
| 2026-05-04 04:10 | 14.30954 | -90.39442 | 8091 ft | 239 kts | 317° |
| 2026-05-04 04:10 | 14.32052 | -90.40641 | 7762 ft | 223 kts | 317° |
| 2026-05-04 04:10 | 14.33110 | -90.41736 | 7428 ft | 207 kts | 320° |
| 2026-05-04 04:11 | 14.34126 | -90.42737 | 7095 ft | 195 kts | 320° |
| 2026-05-04 04:11 | 14.35076 | -90.43670 | 6768 ft | 184 kts | 320° |
| 2026-05-04 04:11 | 14.35954 | -90.44542 | 6525 ft | 166 kts | 320° |
| 2026-05-04 04:11 | 14.36745 | -90.45338 | 6490 ft | 156 kts | 320° |
| 2026-05-04 04:12 | 14.37573 | -90.46160 | 6553 ft | 176 kts | 320° |
| 2026-05-04 04:12 | 14.38482 | -90.47052 | 6498 ft | 176 kts | 320° |
| 2026-05-04 04:12 | 14.39344 | -90.47903 | 6486 ft | 172 kts | 320° |
| 2026-05-04 04:12 | 14.40221 | -90.48772 | 6495 ft | 174 kts | 320° |
| 2026-05-04 04:13 | 14.41096 | -90.49637 | 6505 ft | 175 kts | 320° |
| 2026-05-04 04:13 | 14.41980 | -90.50507 | 6487 ft | 174 kts | 320° |
| 2026-05-04 04:13 | 14.42856 | -90.51373 | 6490 ft | 173 kts | 320° |
| 2026-05-04 04:13 | 14.43738 | -90.52233 | 6517 ft | 173 kts | 323° |
| 2026-05-04 04:14 | 14.44737 | -90.52900 | 6535 ft | 171 kts | 336° |
| 2026-05-04 04:14 | 14.45812 | -90.53438 | 6513 ft | 170 kts | 336° |
| 2026-05-04 04:14 | 14.46833 | -90.54050 | 6508 ft | 164 kts | 328° |
| 2026-05-04 04:14 | 14.47714 | -90.54778 | 6509 ft | 164 kts | 322° |
| 2026-05-04 04:15 | 14.48708 | -90.55341 | 6443 ft | 163 kts | 348° |
| 2026-05-04 04:15 | 14.49828 | -90.55366 | 6311 ft | 160 kts | 12° |
| 2026-05-04 04:15 | 14.50907 | -90.55102 | 6170 ft | 157 kts | 13° |
| 2026-05-04 04:15 | 14.51976 | -90.54826 | 6072 ft | 156 kts | 17° |
| 2026-05-04 04:16 | 14.53006 | -90.54472 | 5929 ft | 158 kts | 21° |
| 2026-05-04 04:16 | 14.54080 | -90.54117 | 5643 ft | 162 kts | 16° |
| 2026-05-04 04:16 | 14.55166 | -90.53778 | 5319 ft | 164 kts | 19° |
| 2026-05-04 04:16 | 14.56247 | -90.53416 | 5079 ft | 159 kts | 17° |
| 2026-05-04 04:17 | 14.57285 | -90.53090 | 4924 ft | 148 kts | 19° |
| 2026-05-04 04:17 | 14.58213 | -90.52782 | 4894 ft | 128 kts | 20° |
| 2026-05-04 04:17 | 14.58935 | -90.52552 | 4922 ft | 81 kts | 18° |
| 2026-05-04 04:17 | 14.59188 | -90.52473 | 4929 ft | 4 kts | 342° |
| 2026-05-04 04:18 | 14.59202 | -90.52523 | 4930 ft | 11 kts | 230° |
| 2026-05-04 04:18 | 14.59129 | -90.52553 | 4928 ft | 9 kts | 195° |
| 2026-05-04 04:18 | 14.59074 | -90.52567 | 4927 ft | 6 kts | 196° |
| 2026-05-04 04:18 | 14.59036 | -90.52580 | 4925 ft | 5 kts | 200° |
| 2026-05-04 04:19 | 14.58969 | -90.52605 | 4922 ft | 12 kts | 197° |
| 2026-05-04 04:19 | 14.58891 | -90.52638 | 4919 ft | 11 kts | 201° |
| 2026-05-04 04:19 | 14.58799 | -90.52676 | 4916 ft | 16 kts | 225° |
| 2026-05-04 04:19 | 14.58791 | -90.52720 | 4916 ft | 5 kts | 277° |
| 2026-05-04 04:20 | 14.58786 | -90.52805 | 4915 ft | 18 kts | 257° |
| 2026-05-04 04:20 | 14.58751 | -90.52880 | 4914 ft | 2 kts | 254° |
| 2026-05-04 04:20 | 14.58754 | -90.52891 | 4914 ft | 6 kts | 289° |
| 2026-05-04 04:20 | 14.58765 | -90.52932 | 4914 ft | 0 kts | 288° |
| 2026-05-04 04:21 | 14.58765 | -90.52931 | 4914 ft | 0 kts | 288° |